Data for 05/12/2007

Time Sea-Level Adjusted Pressure Absolute Pressure Temperature Relative Humidity Dew Point   
(mb) (inHg) (mb) (inHg) (C) (F) (%) (C) (F)
00:05 1018 30.06 847 25.01 14.9 58.7 73 10 50
00:10 1018 30.06 847 25.01 14.9 58.8 73 10.2 50.3
00:15 1018 30.06 847 25.01 14.9 58.8 74 10.3 50.5
00:20 1018 30.06 847 25.01 14.8 58.7 74 10.3 50.6
00:25 1018 30.06 847 25.01 14.9 58.7 75 10.5 50.8
00:30 1018 30.06 847 25.01 14.8 58.6 75 10.4 50.8
00:35 1018 30.06 847 25.01 14.7 58.5 76 10.5 51
00:40 1018 30.06 847 25.01 14.6 58.4 76 10.5 50.9
00:45 1018 30.06 847 25.01 14.6 58.3 76 10.5 50.9
00:50 1018 30.06 847 25.01 14.5 58.2 77 10.6 51
00:55 1018 30.06 847 25.01 14.5 58.1 77 10.6 51
01:00 1018 30.06 847 25.01 14.4 57.9 78 10.6 51.1
01:05 1018 30.06 847 25.01 14.4 57.9 78 10.6 51
01:10 1018 30.06 847 25.01 14.4 57.8 78 10.6 51
01:15 1018 30.06 847 25.01 14.4 57.8 78 10.6 51.1
01:20 1018 30.06 847 25.01 14.4 57.9 78 10.6 51.1
01:25 1018 30.06 847 25.01 14.4 57.9 78 10.6 51.1
01:30 1017 30.03 847 25.01 14.4 58 78 10.7 51.2
01:35 1018 30.06 847 25.01 14.4 57.9 78 10.6 51.1
01:40 1018 30.06 847 25.01 14.3 57.8 79 10.7 51.2
01:45 1018 30.06 847 25.01 14.3 57.7 78 10.6 51.1
01:50 1018 30.06 847 25.01 14.3 57.7 78 10.6 51.1
01:55 1018 30.06 847 25.01 14.3 57.7 78 10.6 51
02:00 1018 30.06 847 25.01 14.2 57.5 79 10.6 51.1
02:05 1018 30.06 847 25.01 14.1 57.4 79 10.5 51
02:10 1017 30.03 847 25.01 14 57.2 79 10.5 51
02:15 1017 30.03 847 25.01 14 57.2 79 10.4 50.8
02:20 1017 30.03 846 24.98 14 57.3 79 10.5 51
02:25 1017 30.03 846 24.98 14.1 57.3 79 10.5 51
02:30 1017 30.03 846 24.98 14 57.1 80 10.5 50.9
02:35 1017 30.03 846 24.98 14 57.1 79 10.4 50.8
02:40 1017 30.03 846 24.98 13.9 57.1 79 10.5 50.9
02:45 1017 30.03 846 24.98 13.9 57.1 79 10.3 50.6
02:50 1017 30.03 846 24.98 13.9 57.1 79 10.4 50.7
02:55 1017 30.03 846 24.98 13.9 56.9 79 10.4 50.6
03:00 1017 30.03 846 24.98 13.9 57.1 79 10.4 50.7
03:05 1017 30.03 846 24.98 13.9 57 79 10.3 50.6
03:10 1017 30.03 846 24.98 13.9 57.1 79 10.3 50.6
03:15 1017 30.03 846 24.98 13.9 57 79 10.3 50.5
03:20 1017 30.03 846 24.98 13.9 57 78 10.2 50.4
03:25 1017 30.03 846 24.98 13.9 57 79 10.3 50.5
03:30 1017 30.03 846 24.98 13.9 56.9 78 10.1 50.1
03:35 1017 30.03 846 24.98 13.9 57 78 10.2 50.3
03:40 1017 30.03 846 24.98 13.9 56.9 78 10.1 50.3
03:45 1017 30.03 846 24.98 13.7 56.7 79 10.1 50.2
03:50 1017 30.03 846 24.98 13.6 56.5 79 10.1 50.2
03:55 1017 30.03 846 24.98 13.6 56.5 79 10.2 50.3
04:00 1017 30.03 846 24.98 13.6 56.4 79 10.1 50.1
04:05 1017 30.03 846 24.98 13.6 56.4 79 10.1 50.2
04:10 1017 30.03 846 24.98 13.5 56.3 80 10.1 50.1
04:15 1017 30.03 846 24.98 13.4 56.2 79 9.9 49.9
04:20 1017 30.03 846 24.98 13.4 56.2 79 9.9 49.8
04:25 1017 30.03 846 24.98 13.4 56.2 79 9.8 49.7
04:30 1017 30.03 846 24.98 13.5 56.3 78 9.8 49.7
04:35 1017 30.03 846 24.98 13.5 56.3 79 9.9 49.8
04:40 1017 30.03 846 24.98 13.4 56.2 79 9.9 49.9
04:45 1017 30.03 846 24.98 13.4 56.1 80 10 50
04:50 1017 30.03 846 24.98 13.2 55.8 80 9.9 49.9
04:55 1017 30.03 846 24.98 13.2 55.7 79 9.7 49.5
05:00 1017 30.03 846 24.98 13.2 55.8 79 9.8 49.6
05:05 1017 30.03 846 24.98 13.2 55.7 80 9.7 49.5
05:10 1017 30.03 846 24.98 13 55.4 79 9.5 49.2
05:15 1017 30.03 846 24.98 12.8 55 80 9.5 49.1
05:20 1017 30.03 846 24.98 12.7 54.9 81 9.5 49.1
05:25 1017 30.03 846 24.98 12.7 54.9 80 9.4 48.9
05:30 1017 30.03 846 24.98 12.8 55 76 8.6 47.6
05:35 1017 30.03 846 24.98 12.9 55.2 74 8.4 47.1
05:40 1017 30.03 846 24.98 12.8 55.1 74 8.4 47.1
05:45 1017 30.03 846 24.98 12.6 54.7 79 9.1 48.3
05:50 1017 30.03 846 24.98 12.5 54.5 80 9.3 48.7
05:55 1017 30.03 846 24.98 12.4 54.2 81 9.2 48.6
06:00 1017 30.03 846 24.98 12.2 54 82 9.2 48.5
06:05 1017 30.03 846 24.98 12.1 53.7 82 9.1 48.4
06:10 1017 30.03 846 24.98 12 53.7 82 9.1 48.4
06:15 1017 30.03 846 24.98 12.1 53.7 79 8.5 47.4
06:20 1017 30.03 846 24.98 11.9 53.4 76 7.9 46.2
06:25 1017 30.03 846 24.98 11.3 52.3 74 6.9 44.4
06:30 1017 30.03 846 24.98 11.2 52.1 70 6 42.8
06:35 1017 30.03 846 24.98 11.1 52 71 6.1 42.9
06:40 1017 30.03 846 24.98 11 51.8 70 5.8 42.5
06:45 1017 30.03 846 24.98 10.6 51 69 5.1 41.1
06:50 1017 30.03 846 24.98 9.9 49.9 70 4.7 40.4
06:55 1017 30.03 846 24.98 9.8 49.7 69 4.5 40.1
07:00 1017 30.03 846 24.98 9.9 49.8 68 4.4 39.9
07:05 1017 30.03 846 24.98 10.3 50.5 68 4.7 40.4
07:10 1017 30.03 846 24.98 10.3 50.6 66 4.3 39.8
07:15 1017 30.03 846 24.98 10.8 51.4 65 4.5 40.2
07:20 1017 30.03 846 24.98 11.1 52 65 4.8 40.7
07:25 1017 30.03 846 24.98 11.5 52.7 62 4.5 40.2
07:30 1017 30.03 846 24.98 11.7 53 62 4.6 40.4
07:35 1017 30.03 846 24.98 12.1 53.8 60 4.8 40.6
07:40 1017 30.03 846 24.98 12.7 54.8 61 5.4 41.6
07:45 1017 30.03 846 24.98 12.8 55 58 4.9 40.8
07:50 1017 30.03 846 24.98 12.6 54.7 60 5.1 41.3
07:55 1017 30.03 846 24.98 12.7 54.9 61 5.3 41.6
08:00 1017 30.03 846 24.98 12.9 55.1 59 5.2 41.3
08:05 1017 30.03 846 24.98 13.3 55.9 57 5 40.9
08:10 1017 30.03 846 24.98 13.7 56.6 55 4.8 40.7
08:15 1017 30.03 846 24.98 13.8 56.9 55 5.1 41.2
08:20 1017 30.03 846 24.98 13.9 56.9 54 4.8 40.7
08:25 1017 30.03 846 24.98 14.2 57.6 52 4.6 40.3
08:30 1017 30.03 846 24.98 14.8 58.6 51 4.8 40.6
08:35 1017 30.03 846 24.98 15.2 59.3 51 5.1 41.3
08:40 1017 30.03 846 24.98 15.7 60.3 49 5.3 41.5
08:45 1017 30.03 846 24.98 15.8 60.5 52 5.9 42.7
08:50 1017 30.03 846 24.98 16.1 61 51 6 42.9
08:55 1017 30.03 846 24.98 17.3 63.1 48 6.2 43.1
09:00 1017 30.03 846 24.98 18.2 64.7 44 5.8 42.4
09:05 1017 30.03 846 24.98 17.6 63.6 51 7.4 45.3
09:10 1017 30.03 846 24.98 17.4 63.3 51 7.2 44.9
09:15 1017 30.03 846 24.98 17.7 63.8 49 7.1 44.7
09:20 1017 30.03 846 24.98 17.5 63.5 50 7.1 44.8
09:25 1017 30.03 846 24.98 17.1 62.7 55 8 46.3
09:30 1017 30.03 846 24.98 17.2 62.9 54 7.8 46
09:35 1017 30.03 846 24.98 18.1 64.5 53 8.5 47.3
09:40 1017 30.03 846 24.98 18.4 65.1 52 8.4 47.2
09:45 1017 30.03 846 24.98 18.3 64.9 54 9 48.3
09:50 1017 30.03 846 24.98 18.1 64.5 52 8.2 46.8
09:55 1017 30.03 846 24.98 18.4 65.2 52 8.5 47.4
10:00 1017 30.03 846 24.98 18.9 66.1 52 8.9 47.9
10:05 1017 30.03 846 24.98 18.8 65.8 54 9.4 49
10:10 1017 30.03 846 24.98 17.6 63.8 58 9.4 48.9
10:15 1017 30.03 846 24.98 18.2 64.7 53 8.6 47.4
10:20 1017 30.03 846 24.98 18.5 65.2 54 9 48.3
10:25 1016 30 846 24.98 19 66.3 51 8.9 47.9
10:30 1016 30 846 24.98 19.2 66.6 53 9.5 49.1
10:35 1016 30 846 24.98 18.9 66 52 9 48.2
10:40 1016 30 846 24.98 18.7 65.6 52 8.7 47.7
10:45 1016 30 846 24.98 19.1 66.4 52 9 48.2
10:50 1016 30 845 24.95 19.2 66.6 51 8.9 48.1
10:55 1016 30 845 24.95 18.9 66 52 8.9 48
11:00 1016 30 845 24.95 19.7 67.5 49 8.8 47.9
11:05 1016 30 845 24.95 20.4 68.7 47 9 48.2
11:10 1016 30 845 24.95 21.3 70.3 45 9.1 48.3
11:15 1016 30 845 24.95 21.9 71.4 43 8.7 47.7
11:20 1016 30 845 24.95 22.3 72.1 42 9 48.3
11:25 1016 30 845 24.95 22.4 72.4 43 9.4 48.8
11:30 1016 30 845 24.95 21.1 70 47 9.7 49.4
11:35 1016 30 845 24.95 21.1 70 46 9.1 48.4
11:40 1016 30 845 24.95 21.1 70 44 8.5 47.2
11:45 1016 30 845 24.95 21.9 71.4 44 9.3 48.7
11:50 1016 30 845 24.95 21.8 71.2 43 8.9 48
11:55 1016 30 845 24.95 21.3 70.3 43 8.5 47.2
12:00 1016 30 845 24.95 21.5 70.6 44 8.8 47.9
12:05 1016 30 845 24.95 22.6 72.6 42 9.3 48.8
12:10 1015 29.97 845 24.95 23 73.3 43 10 49.9
12:15 1015 29.97 845 24.95 23.1 73.5 45 10.8 51.5
12:20 1015 29.97 844 24.92 22.2 72 45 9.9 49.8
12:25 1015 29.97 844 24.92 22.4 72.4 46 10.3 50.5
12:30 1015 29.97 844 24.92 23.1 73.5 41 9.3 48.8
12:35 1015 29.97 844 24.92 23.8 74.8 41 10.1 50.2
12:40 1015 29.97 844 24.92 23.4 74.1 42 10 50
12:45 1015 29.97 844 24.92 23 73.4 40 8.8 47.8
12:50 1015 29.97 844 24.92 23.2 73.8 40 9 48.1
12:55 1015 29.97 844 24.92 23.1 73.6 39 8.6 47.5
13:00 1015 29.97 844 24.92 23.1 73.5 40 9 48.1
13:05 1015 29.97 844 24.92 23.7 74.7 36 7.9 46.2
13:10 1015 29.97 844 24.92 24.1 75.4 35 7.7 45.9
13:15 1015 29.97 844 24.92 23.7 74.6 37 8.2 46.8
13:20 1015 29.97 844 24.92 23.2 73.8 36 7.3 45.2
13:25 1015 29.97 844 24.92 23.4 74.1 36 7.5 45.5
13:30 1014 29.94 844 24.92 23.8 74.8 35 7.7 45.9
13:35 1014 29.94 844 24.92 24.2 75.6 34 7.5 45.5
13:40 1014 29.94 844 24.92 24.9 76.9 31 7.1 44.8
13:45 1014 29.94 844 24.92 24.5 76.1 32 7 44.5
13:50 1014 29.94 844 24.92 25.2 77.4 30 6.7 44.1
13:55 1014 29.94 844 24.92 26.1 78.9 32 8.1 46.6
14:00 1014 29.94 843 24.89 26.4 79.6 30 7.7 45.8
14:05 1014 29.94 843 24.89 26.1 79 30 7.4 45.2
14:10 1014 29.94 843 24.89 25.2 77.3 31 7.2 44.9
14:15 1014 29.94 843 24.89 26.2 79.1 28 6.3 43.4
14:20 1014 29.94 843 24.89 27.4 81.3 27 6.9 44.3
14:25 1014 29.94 843 24.89 27.5 81.5 28 7.5 45.4
14:30 1014 29.94 843 24.89 26.3 79.3 29 6.9 44.5
14:35 1014 29.94 843 24.89 26.2 79.2 29 6.8 44.3
14:40 1014 29.94 843 24.89 26.5 79.6 27 6.4 43.4
14:45 1014 29.94 843 24.89 26.3 79.3 27 6.3 43.3
14:50 1014 29.94 843 24.89 26.2 79.1 28 6.4 43.5
14:55 1013 29.91 843 24.89 27.2 81 24 5 41
15:00 1013 29.91 843 24.89 28.3 83 21 4 39.2
15:05 1013 29.91 843 24.89 28.1 82.6 22 5 40.9
15:10 1013 29.91 843 24.89 27.7 81.8 23 4.7 40.4
15:15 1013 29.91 842 24.86 28.4 83.1 22 4.8 40.7
15:20 1013 29.91 842 24.86 28.8 83.8 19 3.3 38
15:25 1013 29.91 842 24.86 28.2 82.7 18 1.6 34.9
15:30 1013 29.91 842 24.86 28.4 83.1 17 1.1 34
15:35 1013 29.91 842 24.86 28.9 84.1 18 2.6 36.7
15:40 1013 29.91 842 24.86 29 84.1 19 3 37.4
15:45 1013 29.91 842 24.86 28.7 83.7 19 2.9 37.2
15:50 1013 29.91 842 24.86 28.1 82.6 18 2.3 36.1
15:55 1013 29.91 842 24.86 27.6 81.7 18 1.4 34.5
16:00 1013 29.91 842 24.86 28.4 83.1 14 -1.2 29.9
16:05 1013 29.91 842 24.86 28.1 82.5 12 -3.4 25.8
16:10 1013 29.91 842 24.86 27.9 82.3 11 -5.3 22.5
16:15 1013 29.91 842 24.86 27.7 81.9 11 -4.8 23.3
16:20 1013 29.91 842 24.86 27.8 82.1 11 -5.1 22.9
16:25 1013 29.91 842 24.86 27.9 82.3 12 -4.1 24.6
16:30 1013 29.91 842 24.86 28 82.5 12 -3.9 25
16:35 1013 29.91 842 24.86 28.1 82.5 11 -4.5 23.9
16:40 1013 29.91 842 24.86 27.9 82.2 12 -4.2 24.4
16:45 1012 29.88 842 24.86 27.6 81.8 12 -4.4 24
16:50 1012 29.88 842 24.86 27.7 81.8 12 -3.6 25.6
16:55 1012 29.88 842 24.86 27.8 82.1 12 -4 24.7
17:00 1012 29.88 842 24.86 27.9 82.2 13 -2.9 26.9
17:05 1012 29.88 841 24.83 27.8 82 12 -3.6 25.5
17:10 1012 29.88 841 24.83 27.7 81.8 13 -2.5 27.6
17:15 1012 29.88 841 24.83 27.3 81.1 12 -3.9 24.9
17:20 1012 29.88 841 24.83 27.3 81.1 13 -3.5 25.7
17:25 1012 29.88 841 24.83 27.5 81.6 13 -2.7 27.2
17:30 1012 29.88 841 24.83 27.1 80.7 14 -2.1 28.3
17:35 1012 29.88 841 24.83 26.6 79.8 15 -1.8 28.7
17:40 1012 29.88 841 24.83 26.2 79.1 15 -2 28.5
17:45 1012 29.88 841 24.83 26.3 79.3 14 -3 26.6
17:50 1012 29.88 841 24.83 26.4 79.5 15 -2.2 28
17:55 1012 29.88 841 24.83 26.5 79.7 15 -2.2 28
18:00 1012 29.88 841 24.83 26.8 80.3 15 -2 28.3
18:05 1012 29.88 841 24.83 26.9 80.3 14 -2.7 27.1
18:10 1012 29.88 841 24.83 27 80.7 14 -2.3 27.8
18:15 1012 29.88 841 24.83 27.2 81 15 -1.1 30
18:20 1012 29.88 841 24.83 26.9 80.5 15 -1.5 29.2
18:25 1012 29.88 841 24.83 26.6 79.8 16 -1.2 29.9
18:30 1012 29.88 841 24.83 26.3 79.3 15 -1.9 28.6
18:35 1012 29.88 841 24.83 26.6 80 15 -2.1 28.3
18:40 1012 29.88 841 24.83 26.9 80.5 15 -1.6 29.1
18:45 1012 29.88 841 24.83 27 80.6 15 -2 28.5
18:50 1012 29.88 841 24.83 27.2 80.9 14 -2.1 28.2
18:55 1012 29.88 841 24.83 27.2 80.9 14 -2.4 27.7
19:00 1012 29.88 841 24.83 26.9 80.5 14 -2.9 26.7
19:05 1012 29.88 841 24.83 26.8 80.2 13 -3.4 25.8
19:10 1012 29.88 841 24.83 26.6 80 14 -2.8 27
19:15 1012 29.88 841 24.83 26.6 79.8 14 -3.2 26.3
19:20 1012 29.88 841 24.83 26.3 79.3 15 -2.2 28.1
19:25 1012 29.88 841 24.83 26 78.8 14 -2.9 26.9
19:30 1012 29.88 841 24.83 25.9 78.6 15 -2.3 27.9
19:35 1012 29.88 841 24.83 25.6 78.1 14 -3.9 25
19:40 1012 29.88 841 24.83 25.7 78.2 14 -3.1 26.4
19:45 1012 29.88 841 24.83 25.2 77.4 16 -2.1 28.2
19:50 1012 29.88 841 24.83 24.6 76.3 17 -1.5 29.3
19:55 1012 29.88 841 24.83 24.6 76.3 15 -3.3 26.1
20:00 1012 29.88 841 24.83 24.4 76 18 -1.3 29.6
20:05 1012 29.88 841 24.83 24.1 75.5 16 -2.9 26.8
20:10 1012 29.88 841 24.83 24.2 75.5 18 -1.6 29.1
20:15 1012 29.88 841 24.83 24.1 75.4 18 -1.4 29.5
20:20 1012 29.88 842 24.86 24.4 75.9 16 -2.6 27.3
20:25 1012 29.88 842 24.86 24.3 75.8 17 -2 28.4
20:30 1012 29.88 842 24.86 23.9 75 18 -1.4 29.5
20:35 1012 29.88 842 24.86 23.5 74.3 20 -0.8 30.5
20:40 1012 29.88 842 24.86 23.3 74 18 -2.3 27.8
20:45 1012 29.88 842 24.86 23.1 73.6 19 -1.7 28.9
20:50 1013 29.91 842 24.86 23 73.4 16 -3.7 25.3
20:55 1013 29.91 842 24.86 23.1 73.5 18 -2.4 27.8
21:00 1013 29.91 842 24.86 23.1 73.5 17 -3.2 26.3
21:05 1013 29.91 842 24.86 23 73.4 18 -2.4 27.6
21:10 1013 29.91 842 24.86 23 73.3 17 -2.9 26.7
21:15 1013 29.91 842 24.86 23 73.4 20 -1.2 29.9
21:20 1013 29.91 842 24.86 22.5 72.5 19 -2.4 27.6
21:25 1013 29.91 842 24.86 22 71.7 23 0.1 32.3
21:30 1013 29.91 842 24.86 21.9 71.5 17 -3.8 25.2
21:35 1013 29.91 842 24.86 22.7 72.8 16 -4.6 23.7
21:40 1013 29.91 842 24.86 22.8 73 18 -2.3 27.8
21:45 1013 29.91 842 24.86 21.9 71.4 19 -2.7 27.1
21:50 1013 29.91 842 24.86 21.6 71 20 -2.2 28
21:55 1013 29.91 842 24.86 21.1 70 22 -1.5 29.3
22:00 1013 29.91 842 24.86 20.6 69.1 23 -1.1 30
22:05 1013 29.91 842 24.86 19.9 67.8 25 -0.6 30.9
22:10 1013 29.91 842 24.86 19.6 67.3 25 -1 30.3
22:15 1013 29.91 842 24.86 19.6 67.2 24 -1.5 29.4
22:20 1013 29.91 842 24.86 19.6 67.2 24 -1.2 29.8
22:25 1013 29.91 842 24.86 19.9 67.7 22 -2.5 27.5
22:30 1013 29.91 842 24.86 20.2 68.4 23 -1.5 29.2
22:35 1013 29.91 842 24.86 20.3 68.6 21 -2.4 27.6
22:40 1013 29.91 842 24.86 20.2 68.3 22 -2 28.4
22:45 1013 29.91 842 24.86 20.2 68.3 21 -2.7 27.2
22:50 1013 29.91 842 24.86 20.2 68.4 21 -2.3 27.8
22:55 1013 29.91 842 24.86 20.2 68.4 20 -3 26.5
23:00 1013 29.91 843 24.89 20 68 24 -0.9 30.4
23:05 1014 29.94 843 24.89 18.8 65.8 27 -0.3 31.4
23:10 1014 29.94 843 24.89 18.1 64.7 25 -1.8 28.7
23:15 1014 29.94 843 24.89 18.8 65.8 23 -2.7 27.1
23:20 1013 29.91 843 24.89 19.3 66.7 23 -2 28.5
23:25 1013 29.91 843 24.89 19.5 67.1 24 -1.6 29.2
23:30 1014 29.94 843 24.89 19.5 67.1 24 -1.2 29.9
23:35 1014 29.94 843 24.89 19.4 67 25 -1.2 29.8
23:40 1014 29.94 843 24.89 19.6 67.3 25 -0.8 30.5
23:45 1014 29.94 843 24.89 19.2 66.6 26 -0.5 31.1
23:50 1014 29.94 843 24.89 18.4 65.1 28 -0.2 31.6
23:55 1014 29.94 843 24.89 17.3 63.1 32 0.5 32.8
24:00 1014 29.94 843 24.89 16.2 61.2 34 0.3 32.5